^^
Meteo Knjazevac Station Historical Data
Daily Summary for August 05, 2020 Units:  English    Metric   Both
Daily Weekly Monthly Yearly Custom
  High: Low: Average:
Temperature: 71.4 °F 60.1 °F 65.4 °F
Dew Point: 69.9 °F 59.8 °F 64.8 °F
Humidity: 99% 89% 98%
Wind Speed: 10mph 0mph 2.5mph
Wind Gust: 16mph - -
Wind- - South
Pressure: 29.99 in 29.83 in -
Precipitation: 1.22 in    
Historical Graphs
 
 
Tabular Data for August 05, 2020
Time Temperature Dew Point Pressure Wind Wind Speed Wind Gust Humidity Rainfall Rate (Hourly) solar Conditions
00:00 68.5 °F 68 °F 29.86 in NW 8 mph 10 mph 98% 0.00 in 0 W/m2
00:10 68.5 °F 68 °F 29.86 in WNW 10 mph 12 mph 98% 0.00 in 0 W/m2
00:20 68.4 °F 68.1 °F 29.87 in NW 2 mph 12 mph 99% 0.01 in 0 W/m2
00:30 68.3 °F 67.8 °F 29.88 in SSE 1 mph 4 mph 98% 0.02 in 0 W/m2
00:40 68.2 °F 67.6 °F 29.88 in ESE 1 mph 5 mph 98% 0.01 in 0 W/m2
00:50 68 °F 67.7 °F 29.87 in SE 1 mph 5 mph 99% 0.00 in 0 W/m2
01:00 68 °F 67.7 °F 29.88 in ESE 2 mph 5 mph 99% 0.00 in 0 W/m2
01:10 68 °F 67.7 °F 29.88 in ESE 3 mph 5 mph 99% 0.00 in 0 W/m2
01:20 68.2 °F 67.9 °F 29.87 in ESE 3 mph 5 mph 99% 0.00 in 0 W/m2
01:30 68.2 °F 67.9 °F 29.86 in ESE 3 mph 5 mph 99% 0.00 in 0 W/m2
01:40 68.2 °F 67.9 °F 29.85 in ESE 3 mph 6 mph 99% 0.00 in 0 W/m2
01:50 68 °F 67.7 °F 29.84 in ESE 3 mph 8 mph 99% 0.00 in 0 W/m2
02:00 67.8 °F 67.5 °F 29.83 in ESE 2 mph 8 mph 99% 0.00 in 0 W/m2
02:10 67.8 °F 67.5 °F 29.84 in West 1 mph 5 mph 99% 0.00 in 0 W/m2
02:20 67.6 °F 67.3 °F 29.84 in WNW 2 mph 7 mph 99% 0.00 in 0 W/m2
02:30 67.6 °F 67.3 °F 29.84 in NW 3 mph 5 mph 99% 0.00 in 0 W/m2
02:40 67.6 °F 67.3 °F 29.84 in NW 3 mph 7 mph 99% 0.00 in 0 W/m2
02:50 67.4 °F 67.2 °F 29.84 in WNW 2 mph 7 mph 99% 0.00 in 0 W/m2
03:00 67.3 °F 67 °F 29.85 in NE 2 mph 5 mph 99% 0.00 in 0 W/m2
03:10 67.3 °F 67 °F 29.84 in NE 2 mph 6 mph 99% 0.00 in 0 W/m2
03:20 67.3 °F 67 °F 29.84 in ENE 3 mph 5 mph 99% 0.00 in 0 W/m2
03:30 67.3 °F 67 °F 29.85 in NE 3 mph 6 mph 99% 0.00 in 0 W/m2
03:40 67.4 °F 67.2 °F 29.85 in NE 3 mph 5 mph 99% 0.00 in 0 W/m2
03:50 67.3 °F 67 °F 29.86 in ENE 1 mph 4 mph 99% 0.00 in 0 W/m2
04:00 67.3 °F 67 °F 29.85 in NE 2 mph 5 mph 99% 0.00 in 0 W/m2
04:10 67.3 °F 67 °F 29.86 in ENE 2 mph 5 mph 99% 0.00 in 0 W/m2
04:20 67.3 °F 67 °F 29.86 in East 2 mph 3 mph 99% 0.00 in 0 W/m2
04:30 67.1 °F 66.8 °F 29.86 in East 1 mph 2 mph 99% 0.00 in 0 W/m2
04:40 66.9 °F 66.6 °F 29.86 in East 2 mph 3 mph 99% 0.00 in 0 W/m2
04:50 66.7 °F 66.5 °F 29.86 in ENE 2 mph 3 mph 99% 0.00 in 0 W/m2
05:00 66.7 °F 66.5 °F 29.86 in East 2 mph 2 mph 99% 0.00 in 0 W/m2
05:10 66.4 °F 66.1 °F 29.86 in NW 2 mph 5 mph 99% 0.00 in 0 W/m2
05:20 66.2 °F 65.9 °F 29.87 in NW 2 mph 5 mph 99% 0.00 in 0 W/m2
05:30 66 °F 65.7 °F 29.87 in North 2 mph 5 mph 99% 0.00 in 3 W/m2
05:40 66 °F 65.7 °F 29.87 in North 1 mph 3 mph 99% 0.00 in 7 W/m2
05:50 65.8 °F 65.6 °F 29.88 in NE 1 mph 2 mph 99% 0.00 in 16 W/m2
06:00 65.7 °F 65.4 °F 29.88 in NE 1 mph 5 mph 99% 0.00 in 26 W/m2
06:10 65.7 °F 65.4 °F 29.88 in ENE 1 mph 5 mph 99% 0.00 in 31 W/m2
06:20 65.7 °F 65.4 °F 29.88 in Calm   2 mph 99% 0.00 in 39 W/m2
06:30 65.7 °F 65.4 °F 29.88 in North 1 mph 3 mph 99% 0.00 in 36 W/m2
06:40 65.7 °F 65.4 °F 29.88 in NNE 1 mph 3 mph 99% 0.00 in 47 W/m2
06:50 65.7 °F 65.4 °F 29.88 in NE 1 mph 2 mph 99% 0.00 in 49 W/m2
07:00 65.8 °F 65.6 °F 29.87 in NE 1 mph 2 mph 99% 0.00 in 71 W/m2
07:10 66 °F 65.7 °F 29.88 in WSW 2 mph 3 mph 99% 0.00 in 168 W/m2
07:20 66.2 °F 65.9 °F 29.89 in West 1 mph 4 mph 99% 0.00 in 57 W/m2
07:30 66.4 °F 66.1 °F 29.89 in NE 1 mph 4 mph 99% 0.00 in 17 W/m2
07:40 66.4 °F 66.1 °F 29.91 in ESE 3 mph 7 mph 99% 0.00 in 7 W/m2
07:50 66.4 °F 66.1 °F 29.90 in NNE 2 mph 7 mph 99% 0.05 in 11 W/m2
08:00 66.2 °F 65.9 °F 29.89 in North 9 mph 15 mph 99% 0.16 in 66 W/m2
08:10 66 °F 65.7 °F 29.89 in North 8 mph 15 mph 99% 0.13 in 48 W/m2
08:20 66 °F 65.7 °F 29.89 in North 9 mph 16 mph 99% 0.08 in 97 W/m2
08:30 66 °F 65.7 °F 29.89 in NNE 5 mph 14 mph 99% 0.00 in 92 W/m2
08:40 66.4 °F 66.1 °F 29.90 in North 6 mph 10 mph 99% 0.00 in 227 W/m2
08:50 66.6 °F 66.3 °F 29.90 in North 6 mph 6 mph 99% 0.00 in 156 W/m2
09:00 66.7 °F 66.5 °F 29.90 in NNW 3 mph 7 mph 99% 0.00 in 178 W/m2
09:10 66.9 °F 66.6 °F 29.90 in West 6 mph 7 mph 99% 0.00 in 244 W/m2
09:20 67.3 °F 67 °F 29.90 in WSW 8 mph 10 mph 99% 0.02 in 408 W/m2
09:30 68 °F 67.7 °F 29.90 in WSW 7 mph 12 mph 99% 0.00 in 634 W/m2
09:40 69.1 °F 68.8 °F 29.89 in NW 8 mph 13 mph 99% 0.00 in 699 W/m2
09:50 70.2 °F 69.9 °F 29.89 in NE 8 mph 13 mph 99% 0.00 in 564 W/m2
10:00 70.9 °F 69.1 °F 29.89 in NNW 5 mph 12 mph 94% 0.00 in 745 W/m2
10:10 70.9 °F 68.8 °F 29.89 in North 7 mph 12 mph 93% 0.00 in 637 W/m2
10:20 71.1 °F 68.3 °F 29.90 in WNW 9 mph 12 mph 91% 0.00 in 560 W/m2
10:30 71.1 °F 68.9 °F 29.90 in NE 5 mph 12 mph 93% 0.00 in 350 W/m2
10:40 71.2 °F 68.5 °F 29.90 in NE 7 mph 12 mph 91% 0.00 in 360 W/m2
10:50 71.4 °F 68.7 °F 29.90 in NE 1 mph 10 mph 91% 0.00 in 307 W/m2
11:00 71.4 °F 68 °F 29.90 in SSW 2 mph 6 mph 89% 0.00 in 259 W/m2
11:10 71.2 °F 67.8 °F 29.91 in SW 2 mph 5 mph 89% 0.00 in 135 W/m2
11:20 70.9 °F 67.8 °F 29.92 in SW 3 mph 8 mph 90% 0.00 in 26 W/m2
11:30 69.6 °F 66.2 °F 29.92 in SW 5 mph 12 mph 89% 0.00 in 29 W/m2
11:40 68.8 °F 65.8 °F 29.93 in SW 2 mph 8 mph 90% 0.00 in 16 W/m2
11:50 68.2 °F 65.1 °F 29.94 in WSW 5 mph 10 mph 90% 0.00 in 9 W/m2
12:00 67.6 °F 64.3 °F 29.95 in WSW 3 mph 10 mph 89% 0.00 in 9 W/m2
12:10 67 °F 64 °F 29.95 in WSW 5 mph 13 mph 90% 0.01 in 14 W/m2
12:20 65.8 °F 63.5 °F 29.96 in SW 5 mph 10 mph 92% 0.00 in 12 W/m2
12:30 65.1 °F 63.3 °F 29.96 in SW 5 mph 7 mph 94% 0.02 in 19 W/m2
12:40 64.8 °F 63.3 °F 29.96 in SW 2 mph 6 mph 95% 0.01 in 20 W/m2
12:50 64.6 °F 63.7 °F 29.97 in SE 2 mph 5 mph 97% 0.03 in 30 W/m2
13:00 64.5 °F 64 °F 29.97 in South 1 mph 4 mph 98% 0.03 in 51 W/m2
13:10 64.4 °F 64.1 °F 29.97 in South 1 mph 5 mph 99% 0.02 in 53 W/m2
13:20 64.2 °F 63.9 °F 29.97 in ESE 1 mph 5 mph 99% 0.02 in 53 W/m2
13:30 64.2 °F 63.9 °F 29.96 in Calm   8 mph 99% 0.03 in 117 W/m2
13:40 64.2 °F 63.9 °F 29.96 in ESE 3 mph 7 mph 99% 0.03 in 94 W/m2
13:50 64.2 °F 63.9 °F 29.96 in SSE 2 mph 7 mph 99% 0.00 in 129 W/m2
14:00 64 °F 63.8 °F 29.97 in SE 2 mph 5 mph 99% 0.01 in 127 W/m2
14:10 64.2 °F 63.9 °F 29.96 in SE 2 mph 7 mph 99% 0.00 in 215 W/m2
14:20 64.6 °F 64.3 °F 29.96 in SE 1 mph 4 mph 99% 0.00 in 96 W/m2
14:30 64.6 °F 64.3 °F 29.96 in ESE 2 mph 5 mph 99% 0.00 in 71 W/m2
14:40 64.8 °F 64.5 °F 29.96 in ESE 2 mph 6 mph 99% 0.00 in 96 W/m2
14:50 64.8 °F 64.5 °F 29.97 in SE 2 mph 9 mph 99% 0.00 in 47 W/m2
15:00 64.8 °F 64.5 °F 29.97 in SSE 2 mph 8 mph 99% 0.00 in 56 W/m2
15:10 64.6 °F 64.3 °F 29.97 in South 2 mph 7 mph 99% 0.00 in 50 W/m2
15:20 64.6 °F 64.3 °F 29.98 in South 2 mph 6 mph 99% 0.01 in 41 W/m2
15:30 64.6 °F 64.3 °F 29.98 in South 3 mph 6 mph 99% 0.03 in 36 W/m2
15:40 64.4 °F 64.1 °F 29.99 in SW 2 mph 6 mph 99% 0.03 in 30 W/m2
15:50 64.2 °F 63.9 °F 29.99 in SSW 2 mph 7 mph 99% 0.03 in 20 W/m2
16:00 64 °F 63.8 °F 29.99 in ESE 2 mph 5 mph 99% 0.05 in 21 W/m2
16:10 63.7 °F 63.4 °F 29.99 in ESE 3 mph 6 mph 99% 0.05 in 18 W/m2
16:20 63.5 °F 63.2 °F 29.99 in ESE 5 mph 8 mph 99% 0.04 in 19 W/m2
16:30 63.3 °F 63 °F 29.99 in East 1 mph 7 mph 99% 0.06 in 19 W/m2
16:40 63.1 °F 62.8 °F 29.99 in ESE 5 mph 12 mph 99% 0.05 in 21 W/m2
16:50 62.9 °F 62.6 °F 29.98 in ESE 2 mph 8 mph 99% 0.05 in 26 W/m2
17:00 62.8 °F 62.5 °F 29.97 in ENE 2 mph 6 mph 99% 0.07 in 32 W/m2
17:10 62.6 °F 62.3 °F 29.97 in NE 2 mph 4 mph 99% 0.04 in 43 W/m2
17:20 62.6 °F 62.3 °F 29.96 in North 1 mph 5 mph 99% 0.02 in 67 W/m2
17:30 62.8 °F 62.5 °F 29.94 in NNW 2 mph 6 mph 99% 0.00 in 78 W/m2
17:40 62.8 °F 62.5 °F 29.93 in NNW 2 mph 5 mph 99% 0.00 in 65 W/m2
17:50 62.8 °F 62.5 °F 29.94 in NNW 1 mph 3 mph 99% 0.00 in 54 W/m2
18:00 62.8 °F 62.5 °F 29.93 in NNW 1 mph 3 mph 99% 0.00 in 46 W/m2
18:10 62.6 °F 62.3 °F 29.92 in WNW 3 mph 5 mph 99% 0.00 in 69 W/m2
18:20 62.7 °F 62.4 °F 29.92 in West 3 mph 7 mph 99% 0.00 in 72 W/m2
18:30 62.8 °F 62.5 °F 29.92 in West 3 mph 10 mph 99% 0.00 in 65 W/m2
18:40 62.8 °F 62.5 °F 29.93 in West 2 mph 10 mph 99% 0.00 in 64 W/m2
18:50 63 °F 62.7 °F 29.93 in WNW 3 mph 6 mph 99% 0.00 in 52 W/m2
19:00 63 °F 62.7 °F 29.94 in WNW 2 mph 5 mph 99% 0.00 in 35 W/m2
19:10 63 °F 62.7 °F 29.93 in WNW 2 mph 5 mph 99% 0.00 in 19 W/m2
19:20 63 °F 62.7 °F 29.94 in WNW 2 mph 4 mph 99% 0.00 in 14 W/m2
19:30 63 °F 62.7 °F 29.94 in NW 1 mph 3 mph 99% 0.00 in 10 W/m2
19:40 63 °F 62.7 °F 29.94 in Calm   3 mph 99% 0.00 in 6 W/m2
19:50 62.8 °F 62.5 °F 29.94 in West 1 mph 3 mph 99% 0.00 in 0 W/m2
20:00 62.8 °F 62.5 °F 29.94 in Calm   3 mph 99% 0.00 in 0 W/m2
20:10 62.6 °F 62.3 °F 29.94 in WNW 1 mph 2 mph 99% 0.00 in 0 W/m2
20:20 62.6 °F 62.3 °F 29.94 in North 1 mph 2 mph 99% 0.00 in 0 W/m2
20:30 62.6 °F 62.3 °F 29.94 in North 2 mph 2 mph 99% 0.00 in 0 W/m2
20:40 62.4 °F 62.1 °F 29.94 in Calm   2 mph 99% 0.00 in 0 W/m2
20:50 62.3 °F 62.1 °F 29.95 in Calm   2 mph 99% 0.00 in 0 W/m2
21:00 62.2 °F 62 °F 29.95 in NE 3 mph 5 mph 99% 0.00 in 0 W/m2
21:10 62.2 °F 62 °F 29.96 in East 1 mph 5 mph 99% 0.00 in 0 W/m2
21:20 62.2 °F 61.9 °F 29.96 in ENE 1 mph 5 mph 99% 0.00 in 0 W/m2
21:30 62.1 °F 61.8 °F 29.96 in Calm   3 mph 99% 0.00 in 0 W/m2
21:40 61.9 °F 61.6 °F 29.96 in Calm   2 mph 99% 0.00 in 0 W/m2
21:50 61.9 °F 61.6 °F 29.95 in NW 2 mph 4 mph 99% 0.00 in 0 W/m2
22:00 61.9 °F 61.6 °F 29.96 in Calm   2 mph 99% 0.00 in 0 W/m2
22:10 61.7 °F 61.4 °F 29.95 in Calm   2 mph 99% 0.00 in 0 W/m2
22:20 61.6 °F 61.3 °F 29.95 in Calm   1 mph 99% 0.00 in 0 W/m2
22:30 61.5 °F 61.2 °F 29.95 in Calm   2 mph 99% 0.00 in 0 W/m2
22:40 61.3 °F 61.1 °F 29.95 in WNW 3 mph 5 mph 99% 0.00 in 0 W/m2
22:50 61.2 °F 60.9 °F 29.95 in WNW 2 mph 5 mph 99% 0.00 in 0 W/m2
23:00 61 °F 60.7 °F 29.95 in West 1 mph 5 mph 99% 0.00 in 0 W/m2
23:10 60.7 °F 60.4 °F 29.95 in West 2 mph 5 mph 99% 0.00 in 0 W/m2
23:20 60.4 °F 60.2 °F 29.95 in Calm   5 mph 99% 0.00 in 0 W/m2
23:30 60.4 °F 60.1 °F 29.95 in Calm   1 mph 99% 0.00 in 0 W/m2
23:40 60.1 °F 59.8 °F 29.95 in ESE 1 mph 5 mph 99% 0.00 in 0 W/m2
23:50 60.1 °F 59.8 °F 29.96 in Calm   3 mph 99% 0.00 in 0 W/m2
Knjazevac, Serbia
Compliments of Weather Underground - 2 mb